Airfield :
LOGIN :

Register | Disclaimer

   EN    FR    IT 

 










Legend :    VFR   Marginal VFR   IFR   Intensive IFR   Very Intensive IFR
Visi :
Ceiling :
>= 8 km
>= 3000ft
5 to 8 km
1000 to 3000 ft
1500m to 5 km
500 to 1000 ft
800 to 1500m
200 to 500 ft
< 800m
< 200 ft
Symbols :   Thunderstorms  Fog  Heavy snow  Heavy precipitations  Wind > 20 kt
SIGMETs :     Misc.  Thunderstorms  Icing  Turbulence  Mountain Waves  Volcanic Ashes






- Airport Elevation : 233 ft
- IATA code : REU


LERS - Reus Tarragona

CURRENT METAR :
  • 091430Z 28022G34KT 250V310 9999 FEW040 16/04 Q1019

EXPIRED METARs :
  • 091400Z 29023G33KT 250V320 9999 FEW040 16/05 Q1019
  • 091330Z 29028G40KT 260V320 9999 FEW040 16/05 Q1019
  • 091300Z 28024G40KT 250V320 9999 FEW040 16/05 Q1019
  • 091230Z 28024G36KT 9999 FEW040 16/04 Q1019
  • 091200Z 28029G42KT 240V330 9999 FEW040 16/04 Q1019

TAF TAF LERS
Valid from the 09 at 15:00 until the 10 at 15:00 UTC


091400Z 0915/1015 28016KT CAVOK TX16/1012Z TN09/1006Z
PROB40
TEMPO 0915/0918 28020G38KT
PROB40
TEMPO 0920/0924 25008KT
BECMG 1006/1008 VRB04KT



MET'MAP, your aeronautical weather chart ! - Copyright ORBIFLY December 2007 - Disclaimer

ORBIFLY MET'MAP TEAM :

Programming & Development : Alexandra Zaïnal
Concept & original design : Baudouin d'Aumeries
Assistance for programming : Marc-Olivier Méhu
Technical & hardware support : Manuel Goepfert

Contact : metmap@orbifly.com




SOURCES & CREDITS :

   NOAA